HOURLY OBS INDEX

065

Central Western Slopes - south

COWRA AIRPORT AWS

Site: 065111
Alt: 300.4m
5km SW of COWRA


  Time     Wind        Temp  DP   Baro     Rain since   Rain past  Vis(m), Cloud(base in m), Weather
  local        km/h                         9am  last   hr   10m    
Tue 15:00  SSE 15/ 20  28.8 14.6  1012.2    0.2   0.0   0.0   0.0   ----- 
Tue 15:30    S 17/ 24  28.2 12.9  1012.0    0.2   0.0   0.0   0.0   ----- 
Tue 15:30    S 17/ 24  28.2 12.9  1012.0    0.2   0.0  ----   0.0   ----- 
Tue 16:00    S 19/ 28  29.0 13.6  1011.8    0.2   0.0   0.0   0.0   ----- 
Tue 16:00    S 19/ 28  29.0 13.6  1011.8    0.2   0.0  ----   0.0   ----- 
Tue 16:30    S 17/ 26  29.1 13.3  1011.5    0.2   0.0   0.0   0.0   ----- 
Tue 17:00    S 20/ 28  29.0 12.4  1011.3    0.2   0.0   0.0   0.0   ----- 
Tue 17:30  SSE 20/ 28  28.3 12.2  1011.3    0.2   0.0   0.0   0.0   ----- 
Tue 18:00  SSE 15/ 24  28.3 13.0  1011.5    0.2   0.0   0.0   0.0   ----- 
Tue 18:30  SSE 13/ 20  28.1 13.6  1011.7    0.2   0.0   0.0   0.0   ----- 
Tue 19:00  SSE 15/ 22  27.3 13.6  1011.9    0.2   0.0   0.0   0.0   ----- 
Tue 19:30  SSE 11/ 20  26.5 13.3  1012.2    0.2   0.0   0.0   0.0   ----- 
Tue 19:30  SSE 11/ 20  26.5 13.3  1012.2    0.2   0.0  ----   0.0   ----- 
Tue 19:30  SSE 11/ 20  26.5 13.3  1012.2    0.2   0.0  ----   0.0   ----- 
Tue 19:30  SSE 11/ 20  26.5 13.3  1012.2    0.2   0.0  ----   0.0   ----- 
Tue 20:00    E  9/ 17  25.4 14.5  1012.7    0.2   0.0   0.0   0.0   ----- 
Tue 20:30    E 15/ 22  24.3 14.7  1013.2    0.2   0.0   0.0   0.0   ----- 

DUBBO AIRPORT AWS

Site: 065070
Alt: 284.0m
4km NW of DUBBO


  Time     Wind        Temp  DP   Baro     Rain since   Rain past  Vis(m), Cloud(base in m), Weather
  local        km/h                         9am  last   hr   10m    
Tue 15:00    S 15/ 30  29.8 12.7  1011.5    0.0   0.0   0.0   0.0   10000|SC1830 
Tue 15:30    S 15/ 28  29.7 12.2  1011.2    0.0   0.0   0.0   0.0   10000|SC1980 
Tue 15:30    S 15/ 28  29.7 12.2  1011.2    0.0   0.0  ----   0.0   10000|SC1980 
Tue 16:00  ESE 17/ 24  28.7 11.7  1010.8    0.0   0.0   0.0   0.0   10000|SC1980 
Tue 16:00  ESE 17/ 24  28.7 11.7  1010.8    0.0   0.0  ----   0.0   10000|SC1980 
Tue 16:30  SSE 15/ 20  28.9 12.3  1010.6    0.0   0.0   0.0   0.0   10000|SC2430 
Tue 17:00  SSE 17/ 24  28.6 12.1  1010.6    0.0   0.0   0.0   0.0   10000|SC2490 
Tue 17:30    S 15/ 24  29.8 11.8  1010.5    0.0   0.0   0.0   0.0   10000 
Tue 18:00  SSE 13/ 17  29.2 12.2  1010.7    0.0   0.0   0.0   0.0   10000 
Tue 18:30   SE 17/ 24  29.2 11.3  1010.9    0.0   0.0   0.0   0.0   10000 
Tue 19:00  SSE 13/ 17  27.7 11.7  1011.1    0.0   0.0   0.0   0.0   10000 
Tue 19:30    S 11/ 13  26.2 11.9  1011.3    0.0   0.0   0.0   0.0   10000 
Tue 19:30    S 11/ 13  26.2 11.9  1011.3    0.0   0.0  ----   0.0   10000 
Tue 19:30    S 11/ 13  26.2 11.9  1011.3    0.0   0.0  ----   0.0   10000 
Tue 19:30    S 11/ 13  26.2 11.9  1011.3    0.0   0.0  ----   0.0   10000 
Tue 20:00  SSE 11/ 13  25.0 12.2  1011.7    0.0   0.0   0.0   0.0   10000 
Tue 20:30  SSE  9/ 11  23.8 12.8  1012.3    0.0   0.0   0.0   0.0   10000 

FORBES AIRPORT AWS

Site: 065103
Alt: 230.4m
34km SW of PARKES


  Time     Wind        Temp  DP   Baro     Rain since   Rain past  Vis(m), Cloud(base in m), Weather
  local        km/h                         9am  last   hr   10m    
Tue 15:00    S  9/ 19  30.0 12.4  1011.5    0.0   0.0   0.0   0.0   ----- 
Tue 15:30    S 17/ 28  30.2 12.6  1011.3    0.0   0.0   0.0   0.0   ----- 
Tue 15:30    S 17/ 28  30.2 12.6  1011.3    0.0   0.0  ----   0.0   ----- 
Tue 16:00  SSE 15/ 22  30.2 12.6  1011.1    0.0   0.0   0.0   0.0   ----- 
Tue 16:00  SSE 15/ 22  30.2 12.6  1011.1    0.0   0.0  ----   0.0   ----- 
Tue 16:30    S 13/ 20  30.6 12.5  1010.8    0.0   0.0   0.0   0.0   ----- 
Tue 17:00    S 13/ 24  30.1 11.6  1010.6    0.0   0.0   0.0   0.0   ----- 
Tue 17:30  SSW 17/ 24  30.5 11.9  1010.6    0.0   0.0   0.0   0.0   ----- 
Tue 18:00    S 15/ 20  30.0 12.0  1010.8    0.0   0.0   0.0   0.0   ----- 
Tue 18:30  SSW  9/ 13  29.6 12.1  1010.8    0.0   0.0   0.0   0.0   ----- 
Tue 19:00    S 13/ 19  28.9 11.5  1010.8    0.0   0.0   0.0   0.0   ----- 
Tue 19:30    S  9/ 13  27.8 11.4  1011.3    0.0   0.0   0.0   0.0   ----- 
Tue 19:30    S  9/ 13  27.8 11.4  1011.3    0.0   0.0  ----   0.0   ----- 
Tue 19:30    S  9/ 13  27.8 11.4  1011.3    0.0   0.0  ----   0.0   ----- 
Tue 19:30    S  9/ 13  27.8 11.4  1011.3    0.0   0.0  ----   0.0   ----- 
Tue 20:00    S  7/  9  26.7 11.6  1011.5    0.0   0.0   0.0   0.0   ----- 
Tue 20:30    S  6/  7  25.1 11.3  1011.9    0.0   0.0   0.0   0.0   -----